createdAt,value
2018-04-22T00:00:51.916Z,1011
2018-04-22T00:11:06.395Z,1011
2018-04-22T00:21:21.059Z,1011
2018-04-22T00:31:34.822Z,1010.9
2018-04-22T00:41:49.766Z,1010.7
2018-04-22T00:52:04.480Z,1010.5
2018-04-22T01:02:19.866Z,1010.3
2018-04-22T01:12:34.741Z,1010.1
2018-04-22T01:22:50.087Z,1010.1
2018-04-22T01:33:03.701Z,1010
2018-04-22T01:43:17.635Z,1010
2018-04-22T01:53:32.901Z,1009.8
2018-04-22T02:03:47.541Z,1009.7
2018-04-22T02:14:02.534Z,1009.7
2018-04-22T02:24:17.642Z,1009.6
2018-04-22T02:34:32.582Z,1009.4
2018-04-22T02:44:47.652Z,1009.3
2018-04-22T02:55:01.566Z,1009.2
2018-04-22T03:05:15.704Z,1009
2018-04-22T03:15:30.299Z,1008.9
2018-04-22T03:25:44.033Z,1008.8
2018-04-22T03:35:58.589Z,1008.6
2018-04-22T03:46:12.585Z,1008.5
2018-04-22T03:56:26.465Z,1008.5
2018-04-22T04:06:40.538Z,1008.6
2018-04-22T04:16:55.260Z,1008.3
2018-04-22T04:27:09.544Z,1008.2
2018-04-22T04:37:24.506Z,1008.1
2018-04-22T04:47:38.473Z,1008.1
2018-04-22T04:57:54.079Z,1008
2018-04-22T05:08:08.914Z,1008
2018-04-22T05:18:23.376Z,1007.9
2018-04-22T05:28:38.564Z,1007.9
2018-04-22T05:38:53.065Z,1007.9
2018-04-22T05:49:08.060Z,1007.8
2018-04-22T05:59:22.388Z,1007.6
2018-04-22T06:09:37.117Z,1007.6
2018-04-22T06:19:51.267Z,1007.5
2018-04-22T06:30:06.117Z,1007.4
2018-04-22T06:40:20.671Z,1007.3
2018-04-22T06:50:34.954Z,1007
2018-04-22T07:00:48.884Z,1007
2018-04-22T07:11:04.351Z,1007
2018-04-22T07:21:18.292Z,1006.9
2018-04-22T07:31:33.161Z,1006.8
2018-04-22T07:41:47.099Z,1006.8
2018-04-22T07:52:02.791Z,1006.9
2018-04-22T08:02:18.287Z,1006.9
2018-04-22T08:12:33.218Z,1006.8
2018-04-22T08:22:48.440Z,1006.6
2018-04-22T08:33:04.298Z,1006.6
2018-04-22T08:43:19.199Z,1006.4
2018-04-22T08:53:34.123Z,1006.4
2018-04-22T09:03:48.550Z,1006.5
2018-04-22T09:14:04.143Z,1006.2
2018-04-22T09:24:18.110Z,1006.2
2018-04-22T09:34:32.167Z,1006.2
2018-04-22T09:44:47.350Z,1006.1
2018-04-22T09:55:02.295Z,1006
2018-04-22T10:05:18.015Z,1005.9
2018-04-22T10:15:32.787Z,1005.9
2018-04-22T10:25:48.363Z,1005.8
2018-04-22T10:36:04.283Z,1005.6
2018-04-22T10:46:18.619Z,1005.4
2018-04-22T10:56:33.129Z,1005.4
2018-04-22T11:06:48.671Z,1005.3
2018-04-22T11:17:04.427Z,1005.3
2018-04-22T11:27:18.668Z,1005.3
2018-04-22T11:37:34.153Z,1005.4
2018-04-22T11:47:48.272Z,1005
2018-04-22T11:58:03.446Z,1004.9
2018-04-22T12:08:19.408Z,1005
2018-04-22T12:18:34.929Z,1004.9
2018-04-22T12:28:50.340Z,1004.5
2018-04-22T12:39:05.508Z,1004.3
2018-04-22T12:49:20.227Z,1004.1
2018-04-22T12:59:34.925Z,1003.8
2018-04-22T13:09:49.550Z,1003.9
2018-04-22T13:20:03.703Z,1003.8
2018-04-22T13:30:19.243Z,1003.6
2018-04-22T13:40:33.912Z,1003.6
2018-04-22T13:50:49.780Z,1003.9
2018-04-22T14:01:03.760Z,1003.6
2018-04-22T14:11:18.874Z,1003.5
2018-04-22T14:21:34.536Z,1003.3
2018-04-22T14:31:49.331Z,1003.3
2018-04-22T14:42:04.381Z,1003.1
2018-04-22T14:52:18.058Z,1003
2018-04-22T15:02:32.788Z,1002.8
2018-04-22T15:12:48.001Z,1002.8
2018-04-22T15:23:03.077Z,1003
2018-04-22T15:33:18.041Z,1003.1
2018-04-22T15:43:33.506Z,1002.9
2018-04-22T15:53:47.713Z,1002.7
2018-04-22T16:04:03.209Z,1002.6
2018-04-22T16:14:18.827Z,1002.5
2018-04-22T16:24:34.423Z,1002.4
2018-04-22T16:34:49.732Z,1002.1
2018-04-22T16:45:05.159Z,1002
2018-04-22T16:55:20.286Z,1001.8
2018-04-22T17:05:35.259Z,1002
2018-04-22T17:15:49.838Z,1002.1
2018-04-22T17:26:04.328Z,1002
2018-04-22T17:36:18.238Z,1001.8
2018-04-22T17:46:32.926Z,1001.6
2018-04-22T17:56:48.653Z,1001.6
2018-04-22T18:07:03.363Z,1001.6
2018-04-22T18:17:17.217Z,1001.7
2018-04-22T18:27:31.991Z,1001.8
2018-04-22T18:37:46.222Z,1002.9
2018-04-22T18:48:00.605Z,1003.7
2018-04-22T18:58:14.577Z,1004.2
2018-04-22T19:08:30.030Z,1003.8
2018-04-22T19:18:45.734Z,1003.2
2018-04-22T19:29:01.366Z,1003.2
2018-04-22T19:39:15.731Z,1003.4
2018-04-22T19:49:31.320Z,1003.3
2018-04-22T19:59:46.322Z,1003.5
2018-04-22T20:10:01.009Z,1003.6
2018-04-22T20:20:15.675Z,1003.6
2018-04-22T20:30:31.372Z,1003.7
2018-04-22T20:40:46.546Z,1003.6
2018-04-22T20:51:01.707Z,1003.6
2018-04-22T21:01:15.679Z,1003.6
2018-04-22T21:11:30.204Z,1003.6
2018-04-22T21:21:44.576Z,1003.7
2018-04-22T21:31:58.547Z,1003.8
2018-04-22T21:42:12.324Z,1003.9
2018-04-22T21:52:27.316Z,1004
2018-04-22T22:02:41.603Z,1003.9
2018-04-22T22:12:56.369Z,1003.9
2018-04-22T22:23:10.652Z,1003.8
2018-04-22T22:33:24.518Z,1003.8
2018-04-22T22:43:38.694Z,1003.8
2018-04-22T22:53:53.654Z,1003.8
2018-04-22T23:04:08.479Z,1003.6
2018-04-22T23:14:23.841Z,1003.6
2018-04-22T23:24:38.592Z,1003.5
2018-04-22T23:34:53.746Z,1003.5
2018-04-22T23:45:08.710Z,1003.4
2018-04-22T23:55:22.451Z,1003.4
